sensor_id;sensor_type;location;lat;lon;timestamp;P1;durP1;ratioP1;P2;durP2;ratioP2
59006;SDS011;44792;52.760;6.726;2023-08-12T00:00:18;11.75;;;6.70;;
59006;SDS011;44792;52.760;6.726;2023-08-12T00:02:45;10.50;;;6.65;;
59006;SDS011;44792;52.760;6.726;2023-08-12T00:05:11;9.65;;;6.45;;
59006;SDS011;44792;52.760;6.726;2023-08-12T00:07:38;12.15;;;6.35;;
59006;SDS011;44792;52.760;6.726;2023-08-12T00:10:07;9.95;;;6.85;;
59006;SDS011;44792;52.760;6.726;2023-08-12T00:12:34;11.00;;;6.97;;
59006;SDS011;44792;52.760;6.726;2023-08-12T00:15:01;9.30;;;6.28;;
59006;SDS011;44792;52.760;6.726;2023-08-12T00:17:28;11.80;;;7.13;;
59006;SDS011;44792;52.760;6.726;2023-08-12T00:19:53;9.90;;;6.72;;
59006;SDS011;44792;52.760;6.726;2023-08-12T00:22:19;11.10;;;6.95;;
59006;SDS011;44792;52.760;6.726;2023-08-12T00:24:45;10.60;;;6.72;;
59006;SDS011;44792;52.760;6.726;2023-08-12T00:27:11;13.13;;;6.88;;
59006;SDS011;44792;52.760;6.726;2023-08-12T00:29:37;12.55;;;6.72;;
59006;SDS011;44792;52.760;6.726;2023-08-12T00:32:02;11.45;;;7.53;;
59006;SDS011;44792;52.760;6.726;2023-08-12T00:34:29;10.45;;;6.93;;
59006;SDS011;44792;52.760;6.726;2023-08-12T00:36:54;11.02;;;6.95;;
59006;SDS011;44792;52.760;6.726;2023-08-12T00:39:20;16.33;;;8.55;;
59006;SDS011;44792;52.760;6.726;2023-08-12T00:41:46;9.95;;;6.05;;
59006;SDS011;44792;52.760;6.726;2023-08-12T00:44:12;11.80;;;7.43;;
59006;SDS011;44792;52.760;6.726;2023-08-12T00:46:38;9.55;;;6.93;;
59006;SDS011;44792;52.760;6.726;2023-08-12T00:49:05;11.10;;;6.95;;
59006;SDS011;44792;52.760;6.726;2023-08-12T00:51:31;12.45;;;6.97;;
59006;SDS011;44792;52.760;6.726;2023-08-12T00:53:58;11.25;;;8.00;;
59006;SDS011;44792;52.760;6.726;2023-08-12T00:56:25;12.00;;;6.80;;
59006;SDS011;44792;52.760;6.726;2023-08-12T00:58:52;11.80;;;7.28;;
59006;SDS011;44792;52.760;6.726;2023-08-12T01:01:18;12.13;;;7.90;;
59006;SDS011;44792;52.760;6.726;2023-08-12T01:03:45;9.57;;;7.50;;
59006;SDS011;44792;52.760;6.726;2023-08-12T01:06:11;12.77;;;7.35;;
59006;SDS011;44792;52.760;6.726;2023-08-12T01:08:37;8.68;;;6.72;;
59006;SDS011;44792;52.760;6.726;2023-08-12T01:11:19;16.15;;;8.65;;
59006;SDS011;44792;52.760;6.726;2023-08-12T01:16:24;14.75;;;8.02;;
59006;SDS011;44792;52.760;6.726;2023-08-12T01:18:54;12.27;;;7.93;;
59006;SDS011;44792;52.760;6.726;2023-08-12T01:21:21;11.65;;;7.90;;
59006;SDS011;44792;52.760;6.726;2023-08-12T01:23:47;10.43;;;8.02;;
59006;SDS011;44792;52.760;6.726;2023-08-12T01:26:13;13.25;;;8.60;;
59006;SDS011;44792;52.760;6.726;2023-08-12T01:28:39;15.95;;;8.80;;
59006;SDS011;44792;52.760;6.726;2023-08-12T01:31:28;13.00;;;7.88;;
59006;SDS011;44792;52.760;6.726;2023-08-12T01:34:17;14.48;;;8.73;;
59006;SDS011;44792;52.760;6.726;2023-08-12T01:36:56;13.70;;;9.23;;
59006;SDS011;44792;52.760;6.726;2023-08-12T01:39:23;12.68;;;8.32;;
59006;SDS011;44792;52.760;6.726;2023-08-12T01:41:52;17.05;;;9.40;;
59006;SDS011;44792;52.760;6.726;2023-08-12T01:44:19;14.75;;;9.40;;
59006;SDS011;44792;52.760;6.726;2023-08-12T01:46:46;13.20;;;8.65;;
59006;SDS011;44792;52.760;6.726;2023-08-12T01:49:11;16.08;;;9.43;;
59006;SDS011;44792;52.760;6.726;2023-08-12T01:51:37;13.23;;;8.60;;
59006;SDS011;44792;52.760;6.726;2023-08-12T01:54:03;12.55;;;8.75;;
59006;SDS011;44792;52.760;6.726;2023-08-12T01:56:29;16.05;;;9.10;;
59006;SDS011;44792;52.760;6.726;2023-08-12T01:58:55;12.00;;;8.25;;
59006;SDS011;44792;52.760;6.726;2023-08-12T02:01:20;14.68;;;8.32;;
59006;SDS011;44792;52.760;6.726;2023-08-12T02:03:46;14.65;;;8.93;;
59006;SDS011;44792;52.760;6.726;2023-08-12T02:06:12;14.02;;;8.88;;
59006;SDS011;44792;52.760;6.726;2023-08-12T02:08:37;13.55;;;9.10;;
59006;SDS011;44792;52.760;6.726;2023-08-12T02:11:03;18.45;;;9.50;;
59006;SDS011;44792;52.760;6.726;2023-08-12T02:13:29;19.60;;;8.75;;
59006;SDS011;44792;52.760;6.726;2023-08-12T02:15:55;12.38;;;9.20;;
59006;SDS011;44792;52.760;6.726;2023-08-12T02:18:21;16.05;;;9.55;;
59006;SDS011;44792;52.760;6.726;2023-08-12T02:20:47;14.32;;;9.18;;
59006;SDS011;44792;52.760;6.726;2023-08-12T02:23:13;15.82;;;10.27;;
59006;SDS011;44792;52.760;6.726;2023-08-12T02:25:39;13.75;;;9.40;;
59006;SDS011;44792;52.760;6.726;2023-08-12T02:28:05;15.63;;;9.30;;
59006;SDS011;44792;52.760;6.726;2023-08-12T02:30:30;16.23;;;10.27;;
59006;SDS011;44792;52.760;6.726;2023-08-12T02:32:56;17.65;;;10.10;;
59006;SDS011;44792;52.760;6.726;2023-08-12T02:35:22;15.43;;;9.77;;
59006;SDS011;44792;52.760;6.726;2023-08-12T02:37:48;16.15;;;9.73;;
59006;SDS011;44792;52.760;6.726;2023-08-12T02:40:14;13.60;;;9.35;;
59006;SDS011;44792;52.760;6.726;2023-08-12T02:42:40;15.38;;;9.85;;
59006;SDS011;44792;52.760;6.726;2023-08-12T02:45:05;18.20;;;9.85;;
59006;SDS011;44792;52.760;6.726;2023-08-12T02:47:31;15.70;;;10.27;;
59006;SDS011;44792;52.760;6.726;2023-08-12T02:49:57;15.90;;;10.48;;
59006;SDS011;44792;52.760;6.726;2023-08-12T02:52:23;15.13;;;9.98;;
59006;SDS011;44792;52.760;6.726;2023-08-12T02:54:49;14.18;;;9.98;;
59006;SDS011;44792;52.760;6.726;2023-08-12T02:57:15;19.15;;;10.57;;
59006;SDS011;44792;52.760;6.726;2023-08-12T02:59:40;17.75;;;9.90;;
59006;SDS011;44792;52.760;6.726;2023-08-12T03:02:06;20.05;;;10.05;;
59006;SDS011;44792;52.760;6.726;2023-08-12T03:04:32;17.27;;;9.90;;
59006;SDS011;44792;52.760;6.726;2023-08-12T03:06:58;14.45;;;9.70;;
59006;SDS011;44792;52.760;6.726;2023-08-12T03:09:23;17.73;;;9.82;;
59006;SDS011;44792;52.760;6.726;2023-08-12T03:11:49;18.38;;;10.10;;
59006;SDS011;44792;52.760;6.726;2023-08-12T03:14:15;17.40;;;9.90;;
59006;SDS011;44792;52.760;6.726;2023-08-12T03:16:40;15.35;;;9.45;;
59006;SDS011;44792;52.760;6.726;2023-08-12T03:19:06;12.90;;;9.00;;
59006;SDS011;44792;52.760;6.726;2023-08-12T03:21:32;13.25;;;9.00;;
59006;SDS011;44792;52.760;6.726;2023-08-12T03:23:59;13.30;;;9.45;;
59006;SDS011;44792;52.760;6.726;2023-08-12T03:26:25;14.32;;;9.00;;
59006;SDS011;44792;52.760;6.726;2023-08-12T03:28:51;13.27;;;9.07;;
59006;SDS011;44792;52.760;6.726;2023-08-12T03:31:16;15.52;;;8.90;;
59006;SDS011;44792;52.760;6.726;2023-08-12T03:33:42;13.68;;;8.00;;
59006;SDS011;44792;52.760;6.726;2023-08-12T03:36:08;14.32;;;8.77;;
59006;SDS011;44792;52.760;6.726;2023-08-12T03:38:34;15.25;;;9.93;;
59006;SDS011;44792;52.760;6.726;2023-08-12T03:41:01;14.85;;;9.73;;
59006;SDS011;44792;52.760;6.726;2023-08-12T03:43:28;14.43;;;10.38;;
59006;SDS011;44792;52.760;6.726;2023-08-12T03:45:53;13.85;;;9.20;;
59006;SDS011;44792;52.760;6.726;2023-08-12T03:48:19;14.73;;;9.70;;
59006;SDS011;44792;52.760;6.726;2023-08-12T03:50:45;13.45;;;9.45;;
59006;SDS011;44792;52.760;6.726;2023-08-12T03:53:12;13.40;;;9.27;;
59006;SDS011;44792;52.760;6.726;2023-08-12T03:55:38;16.27;;;9.80;;
59006;SDS011;44792;52.760;6.726;2023-08-12T03:58:04;15.13;;;9.25;;
59006;SDS011;44792;52.760;6.726;2023-08-12T04:00:30;16.45;;;11.57;;
59006;SDS011;44792;52.760;6.726;2023-08-12T04:02:56;12.05;;;9.73;;
59006;SDS011;44792;52.760;6.726;2023-08-12T04:05:22;14.30;;;9.15;;
59006;SDS011;44792;52.760;6.726;2023-08-12T04:07:47;14.00;;;9.43;;
59006;SDS011;44792;52.760;6.726;2023-08-12T04:10:13;13.80;;;10.30;;
59006;SDS011;44792;52.760;6.726;2023-08-12T04:12:40;16.52;;;10.63;;
59006;SDS011;44792;52.760;6.726;2023-08-12T04:15:07;15.77;;;10.38;;
59006;SDS011;44792;52.760;6.726;2023-08-12T04:17:33;15.95;;;9.65;;
59006;SDS011;44792;52.760;6.726;2023-08-12T04:19:59;16.25;;;10.07;;
59006;SDS011;44792;52.760;6.726;2023-08-12T04:22:25;14.48;;;9.45;;
59006;SDS011;44792;52.760;6.726;2023-08-12T04:24:51;16.67;;;9.48;;
59006;SDS011;44792;52.760;6.726;2023-08-12T04:27:17;17.35;;;9.63;;
59006;SDS011;44792;52.760;6.726;2023-08-12T04:29:42;17.85;;;10.30;;
59006;SDS011;44792;52.760;6.726;2023-08-12T04:32:08;15.35;;;8.88;;
59006;SDS011;44792;52.760;6.726;2023-08-12T04:34:34;13.82;;;9.02;;
59006;SDS011;44792;52.760;6.726;2023-08-12T04:37:00;14.40;;;9.40;;
59006;SDS011;44792;52.760;6.726;2023-08-12T04:39:25;14.02;;;10.02;;
59006;SDS011;44792;52.760;6.726;2023-08-12T04:41:52;17.27;;;10.13;;
59006;SDS011;44792;52.760;6.726;2023-08-12T04:44:17;16.25;;;10.77;;
59006;SDS011;44792;52.760;6.726;2023-08-12T04:46:43;14.25;;;10.55;;
59006;SDS011;44792;52.760;6.726;2023-08-12T04:49:09;18.90;;;10.52;;
59006;SDS011;44792;52.760;6.726;2023-08-12T04:51:35;16.27;;;10.35;;
59006;SDS011;44792;52.760;6.726;2023-08-12T04:54:01;16.67;;;11.20;;
59006;SDS011;44792;52.760;6.726;2023-08-12T04:56:27;17.05;;;10.45;;
59006;SDS011;44792;52.760;6.726;2023-08-12T04:58:55;15.95;;;10.10;;
59006;SDS011;44792;52.760;6.726;2023-08-12T05:01:21;16.20;;;10.85;;
59006;SDS011;44792;52.760;6.726;2023-08-12T05:03:47;18.58;;;11.43;;
59006;SDS011;44792;52.760;6.726;2023-08-12T05:06:13;21.63;;;11.77;;
59006;SDS011;44792;52.760;6.726;2023-08-12T05:11:04;18.50;;;11.15;;
59006;SDS011;44792;52.760;6.726;2023-08-12T05:13:30;22.73;;;11.68;;
59006;SDS011;44792;52.760;6.726;2023-08-12T05:15:56;23.05;;;13.05;;
59006;SDS011;44792;52.760;6.726;2023-08-12T05:18:22;18.13;;;11.63;;
59006;SDS011;44792;52.760;6.726;2023-08-12T05:20:51;17.52;;;11.18;;
59006;SDS011;44792;52.760;6.726;2023-08-12T05:23:19;16.98;;;12.02;;
59006;SDS011;44792;52.760;6.726;2023-08-12T05:25:45;18.15;;;12.25;;
59006;SDS011;44792;52.760;6.726;2023-08-12T05:28:11;22.73;;;12.60;;
59006;SDS011;44792;52.760;6.726;2023-08-12T05:30:37;21.42;;;13.00;;
59006;SDS011;44792;52.760;6.726;2023-08-12T05:33:04;20.88;;;13.13;;
59006;SDS011;44792;52.760;6.726;2023-08-12T05:35:36;20.60;;;13.68;;
59006;SDS011;44792;52.760;6.726;2023-08-12T05:38:02;20.33;;;13.63;;
59006;SDS011;44792;52.760;6.726;2023-08-12T05:40:28;19.30;;;13.75;;
59006;SDS011;44792;52.760;6.726;2023-08-12T05:42:53;21.70;;;13.85;;
59006;SDS011;44792;52.760;6.726;2023-08-12T05:45:19;24.58;;;14.43;;
59006;SDS011;44792;52.760;6.726;2023-08-12T05:47:45;22.88;;;14.77;;
59006;SDS011;44792;52.760;6.726;2023-08-12T05:50:12;23.60;;;14.50;;
59006;SDS011;44792;52.760;6.726;2023-08-12T05:52:38;23.13;;;14.15;;
59006;SDS011;44792;52.760;6.726;2023-08-12T05:55:04;25.88;;;14.98;;
59006;SDS011;44792;52.760;6.726;2023-08-12T05:57:30;26.70;;;15.65;;
59006;SDS011;44792;52.760;6.726;2023-08-12T05:59:55;23.83;;;15.05;;
59006;SDS011;44792;52.760;6.726;2023-08-12T06:02:21;26.77;;;14.82;;
59006;SDS011;44792;52.760;6.726;2023-08-12T06:04:47;24.67;;;16.20;;
59006;SDS011;44792;52.760;6.726;2023-08-12T06:07:13;26.38;;;15.85;;
59006;SDS011;44792;52.760;6.726;2023-08-12T06:09:38;27.90;;;16.38;;
59006;SDS011;44792;52.760;6.726;2023-08-12T06:12:04;31.90;;;18.33;;
59006;SDS011;44792;52.760;6.726;2023-08-12T06:14:31;32.42;;;19.08;;
59006;SDS011;44792;52.760;6.726;2023-08-12T06:16:57;36.97;;;19.20;;
59006;SDS011;44792;52.760;6.726;2023-08-12T06:19:23;29.33;;;18.52;;
59006;SDS011;44792;52.760;6.726;2023-08-12T06:21:48;38.60;;;18.90;;
59006;SDS011;44792;52.760;6.726;2023-08-12T06:24:14;30.42;;;19.98;;
59006;SDS011;44792;52.760;6.726;2023-08-12T06:26:40;34.13;;;18.42;;
59006;SDS011;44792;52.760;6.726;2023-08-12T06:29:06;38.00;;;19.92;;
59006;SDS011;44792;52.760;6.726;2023-08-12T06:31:32;27.00;;;17.90;;
59006;SDS011;44792;52.760;6.726;2023-08-12T06:33:57;31.27;;;19.20;;
59006;SDS011;44792;52.760;6.726;2023-08-12T06:36:23;33.03;;;19.75;;
59006;SDS011;44792;52.760;6.726;2023-08-12T06:38:49;35.35;;;20.40;;
59006;SDS011;44792;52.760;6.726;2023-08-12T06:41:14;31.45;;;20.67;;
59006;SDS011;44792;52.760;6.726;2023-08-12T06:43:40;28.55;;;18.92;;
59006;SDS011;44792;52.760;6.726;2023-08-12T06:46:06;29.00;;;18.70;;
59006;SDS011;44792;52.760;6.726;2023-08-12T06:48:31;30.33;;;19.77;;
59006;SDS011;44792;52.760;6.726;2023-08-12T06:50:57;30.90;;;18.95;;
59006;SDS011;44792;52.760;6.726;2023-08-12T06:53:24;30.13;;;19.70;;
59006;SDS011;44792;52.760;6.726;2023-08-12T06:55:51;37.17;;;20.45;;
59006;SDS011;44792;52.760;6.726;2023-08-12T06:58:17;33.70;;;20.35;;
59006;SDS011;44792;52.760;6.726;2023-08-12T07:00:42;30.38;;;18.90;;
59006;SDS011;44792;52.760;6.726;2023-08-12T07:03:08;34.30;;;18.33;;
59006;SDS011;44792;52.760;6.726;2023-08-12T07:05:34;30.67;;;19.98;;
59006;SDS011;44792;52.760;6.726;2023-08-12T07:08:00;28.35;;;18.88;;
59006;SDS011;44792;52.760;6.726;2023-08-12T07:10:26;26.05;;;18.83;;
59006;SDS011;44792;52.760;6.726;2023-08-12T07:12:51;34.90;;;20.13;;
59006;SDS011;44792;52.760;6.726;2023-08-12T07:15:17;28.95;;;18.92;;
59006;SDS011;44792;52.760;6.726;2023-08-12T07:17:43;26.65;;;18.05;;
59006;SDS011;44792;52.760;6.726;2023-08-12T07:20:09;29.25;;;19.85;;
59006;SDS011;44792;52.760;6.726;2023-08-12T07:22:34;26.90;;;17.90;;
59006;SDS011;44792;52.760;6.726;2023-08-12T07:25:00;28.85;;;19.30;;
59006;SDS011;44792;52.760;6.726;2023-08-12T07:27:27;22.45;;;16.83;;
59006;SDS011;44792;52.760;6.726;2023-08-12T07:29:53;29.75;;;17.02;;
59006;SDS011;44792;52.760;6.726;2023-08-12T07:32:18;26.98;;;18.70;;
59006;SDS011;44792;52.760;6.726;2023-08-12T07:34:45;27.50;;;17.58;;
59006;SDS011;44792;52.760;6.726;2023-08-12T07:37:11;26.85;;;16.73;;
59006;SDS011;44792;52.760;6.726;2023-08-12T07:39:38;24.17;;;16.20;;
59006;SDS011;44792;52.760;6.726;2023-08-12T07:42:03;26.15;;;16.45;;
59006;SDS011;44792;52.760;6.726;2023-08-12T07:44:29;24.50;;;15.95;;
59006;SDS011;44792;52.760;6.726;2023-08-12T07:46:55;26.60;;;17.00;;
59006;SDS011;44792;52.760;6.726;2023-08-12T07:49:21;26.65;;;16.52;;
59006;SDS011;44792;52.760;6.726;2023-08-12T07:51:47;24.77;;;16.77;;
59006;SDS011;44792;52.760;6.726;2023-08-12T07:54:14;22.92;;;16.15;;
59006;SDS011;44792;52.760;6.726;2023-08-12T07:56:39;21.10;;;16.17;;
59006;SDS011;44792;52.760;6.726;2023-08-12T07:59:05;25.88;;;15.40;;
59006;SDS011;44792;52.760;6.726;2023-08-12T08:01:31;22.98;;;15.90;;
59006;SDS011;44792;52.760;6.726;2023-08-12T08:03:56;25.77;;;15.15;;
59006;SDS011;44792;52.760;6.726;2023-08-12T08:06:22;21.77;;;14.85;;
59006;SDS011;44792;52.760;6.726;2023-08-12T08:08:49;20.60;;;14.98;;
59006;SDS011;44792;52.760;6.726;2023-08-12T08:11:15;25.63;;;14.55;;
59006;SDS011;44792;52.760;6.726;2023-08-12T08:13:41;22.98;;;14.88;;
59006;SDS011;44792;52.760;6.726;2023-08-12T08:16:07;26.40;;;14.15;;
59006;SDS011;44792;52.760;6.726;2023-08-12T08:18:32;25.95;;;14.65;;
59006;SDS011;44792;52.760;6.726;2023-08-12T08:20:58;22.73;;;15.13;;
59006;SDS011;44792;52.760;6.726;2023-08-12T08:23:24;24.50;;;14.45;;
59006;SDS011;44792;52.760;6.726;2023-08-12T08:25:50;30.23;;;15.73;;
59006;SDS011;44792;52.760;6.726;2023-08-12T08:28:16;22.67;;;13.50;;
59006;SDS011;44792;52.760;6.726;2023-08-12T08:30:42;20.70;;;11.65;;
59006;SDS011;44792;52.760;6.726;2023-08-12T08:33:08;13.60;;;10.98;;
59006;SDS011;44792;52.760;6.726;2023-08-12T08:35:34;17.42;;;11.77;;
59006;SDS011;44792;52.760;6.726;2023-08-12T08:38:00;13.90;;;10.23;;
59006;SDS011;44792;52.760;6.726;2023-08-12T08:40:26;17.30;;;11.73;;
59006;SDS011;44792;52.760;6.726;2023-08-12T08:42:52;19.20;;;13.60;;
59006;SDS011;44792;52.760;6.726;2023-08-12T08:45:22;17.17;;;14.23;;
59006;SDS011;44792;52.760;6.726;2023-08-12T08:47:49;18.75;;;14.50;;
59006;SDS011;44792;52.760;6.726;2023-08-12T08:50:16;18.95;;;14.60;;
59006;SDS011;44792;52.760;6.726;2023-08-12T08:52:44;19.27;;;14.45;;
59006;SDS011;44792;52.760;6.726;2023-08-12T08:55:11;20.60;;;13.70;;
59006;SDS011;44792;52.760;6.726;2023-08-12T08:57:37;18.45;;;14.27;;
59006;SDS011;44792;52.760;6.726;2023-08-12T09:00:05;18.83;;;13.55;;
59006;SDS011;44792;52.760;6.726;2023-08-12T09:02:32;17.85;;;13.45;;
59006;SDS011;44792;52.760;6.726;2023-08-12T09:04:59;19.80;;;14.48;;
59006;SDS011;44792;52.760;6.726;2023-08-12T09:07:27;18.50;;;14.25;;
59006;SDS011;44792;52.760;6.726;2023-08-12T09:09:54;17.02;;;13.98;;
59006;SDS011;44792;52.760;6.726;2023-08-12T09:12:23;20.00;;;13.60;;
59006;SDS011;44792;52.760;6.726;2023-08-12T09:14:50;20.90;;;13.00;;
59006;SDS011;44792;52.760;6.726;2023-08-12T09:17:15;15.75;;;11.73;;
59006;SDS011;44792;52.760;6.726;2023-08-12T09:19:41;15.00;;;9.50;;
59006;SDS011;44792;52.760;6.726;2023-08-12T09:22:07;16.23;;;9.45;;
59006;SDS011;44792;52.760;6.726;2023-08-12T09:24:36;10.18;;;8.93;;
59006;SDS011;44792;52.760;6.726;2023-08-12T09:27:05;13.15;;;9.07;;
59006;SDS011;44792;52.760;6.726;2023-08-12T09:29:35;13.32;;;9.02;;
59006;SDS011;44792;52.760;6.726;2023-08-12T09:34:36;12.77;;;8.88;;
59006;SDS011;44792;52.760;6.726;2023-08-12T09:37:02;16.17;;;9.27;;
59006;SDS011;44792;52.760;6.726;2023-08-12T09:39:28;13.40;;;8.55;;
59006;SDS011;44792;52.760;6.726;2023-08-12T09:41:58;9.88;;;8.70;;
59006;SDS011;44792;52.760;6.726;2023-08-12T09:44:25;10.27;;;8.38;;
59006;SDS011;44792;52.760;6.726;2023-08-12T09:46:55;8.07;;;6.82;;
59006;SDS011;44792;52.760;6.726;2023-08-12T09:49:23;7.05;;;5.40;;
59006;SDS011;44792;52.760;6.726;2023-08-12T09:51:49;9.50;;;5.50;;
59006;SDS011;44792;52.760;6.726;2023-08-12T09:54:16;8.40;;;5.45;;
59006;SDS011;44792;52.760;6.726;2023-08-12T09:56:44;5.63;;;4.80;;
59006;SDS011;44792;52.760;6.726;2023-08-12T09:59:13;6.28;;;4.97;;
59006;SDS011;44792;52.760;6.726;2023-08-12T10:01:45;5.03;;;4.35;;
59006;SDS011;44792;52.760;6.726;2023-08-12T10:04:12;5.28;;;4.03;;
59006;SDS011;44792;52.760;6.726;2023-08-12T10:06:42;4.78;;;3.85;;
59006;SDS011;44792;52.760;6.726;2023-08-12T10:09:08;4.90;;;3.80;;
59006;SDS011;44792;52.760;6.726;2023-08-12T10:11:36;4.05;;;3.65;;
59006;SDS011;44792;52.760;6.726;2023-08-12T10:14:05;6.60;;;3.25;;
59006;SDS011;44792;52.760;6.726;2023-08-12T10:16:33;3.60;;;3.05;;
59006;SDS011;44792;52.760;6.726;2023-08-12T10:19:00;3.90;;;3.13;;
59006;SDS011;44792;52.760;6.726;2023-08-12T10:21:27;5.10;;;2.80;;
59006;SDS011;44792;52.760;6.726;2023-08-12T10:23:53;5.35;;;3.38;;
59006;SDS011;44792;52.760;6.726;2023-08-12T10:26:22;4.65;;;3.25;;
59006;SDS011;44792;52.760;6.726;2023-08-12T10:28:49;4.63;;;3.15;;
59006;SDS011;44792;52.760;6.726;2023-08-12T10:31:15;4.78;;;3.30;;
59006;SDS011;44792;52.760;6.726;2023-08-12T10:33:41;4.85;;;3.25;;
59006;SDS011;44792;52.760;6.726;2023-08-12T10:36:08;5.10;;;2.80;;
59006;SDS011;44792;52.760;6.726;2023-08-12T10:38:34;3.38;;;2.95;;
59006;SDS011;44792;52.760;6.726;2023-08-12T10:44:01;5.10;;;3.17;;
59006;SDS011;44792;52.760;6.726;2023-08-12T10:46:33;3.70;;;2.97;;
59006;SDS011;44792;52.760;6.726;2023-08-12T10:49:07;3.97;;;2.88;;
59006;SDS011;44792;52.760;6.726;2023-08-12T10:51:52;2.50;;;2.00;;
59006;SDS011;44792;52.760;6.726;2023-08-12T10:54:26;2.50;;;2.03;;
59006;SDS011;44792;52.760;6.726;2023-08-12T10:57:10;2.00;;;1.55;;
59006;SDS011;44792;52.760;6.726;2023-08-12T11:05:07;1.98;;;1.40;;
59006;SDS011;44792;52.760;6.726;2023-08-12T11:12:40;1.20;;;1.00;;
59006;SDS011;44792;52.760;6.726;2023-08-12T11:15:10;1.20;;;1.00;;
59006;SDS011;44792;52.760;6.726;2023-08-12T11:17:38;0.85;;;0.77;;
59006;SDS011;44792;52.760;6.726;2023-08-12T11:20:06;2.88;;;0.90;;
59006;SDS011;44792;52.760;6.726;2023-08-12T11:22:38;1.10;;;1.00;;
59006;SDS011;44792;52.760;6.726;2023-08-12T11:25:09;1.27;;;1.00;;
59006;SDS011;44792;52.760;6.726;2023-08-12T11:30:06;1.35;;;0.77;;
59006;SDS011;44792;52.760;6.726;2023-08-12T11:32:33;0.73;;;0.50;;
59006;SDS011;44792;52.760;6.726;2023-08-12T11:34:59;1.98;;;0.57;;
59006;SDS011;44792;52.760;6.726;2023-08-12T11:37:25;0.90;;;0.50;;
59006;SDS011;44792;52.760;6.726;2023-08-12T11:39:52;1.00;;;0.63;;
59006;SDS011;44792;52.760;6.726;2023-08-12T11:42:17;1.23;;;0.70;;
59006;SDS011;44792;52.760;6.726;2023-08-12T11:44:43;0.52;;;0.52;;
59006;SDS011;44792;52.760;6.726;2023-08-12T11:47:09;0.60;;;0.60;;
59006;SDS011;44792;52.760;6.726;2023-08-12T11:49:35;0.60;;;0.60;;
59006;SDS011;44792;52.760;6.726;2023-08-12T11:52:00;0.50;;;0.50;;
59006;SDS011;44792;52.760;6.726;2023-08-12T11:54:27;2.75;;;0.70;;
59006;SDS011;44792;52.760;6.726;2023-08-12T11:56:53;1.98;;;0.80;;
59006;SDS011;44792;52.760;6.726;2023-08-12T11:59:21;2.05;;;0.60;;
59006;SDS011;44792;52.760;6.726;2023-08-12T12:01:49;1.05;;;1.00;;
59006;SDS011;44792;52.760;6.726;2023-08-12T12:04:15;1.35;;;1.10;;
59006;SDS011;44792;52.760;6.726;2023-08-12T12:06:45;1.50;;;1.40;;
59006;SDS011;44792;52.760;6.726;2023-08-12T12:09:11;1.25;;;1.15;;
59006;SDS011;44792;52.760;6.726;2023-08-12T12:11:39;1.38;;;1.27;;
59006;SDS011;44792;52.760;6.726;2023-08-12T12:14:06;2.45;;;1.60;;
59006;SDS011;44792;52.760;6.726;2023-08-12T12:16:51;1.70;;;1.60;;
59006;SDS011;44792;52.760;6.726;2023-08-12T12:19:20;3.72;;;1.50;;
59006;SDS011;44792;52.760;6.726;2023-08-12T12:21:47;1.70;;;1.17;;
59006;SDS011;44792;52.760;6.726;2023-08-12T12:24:15;2.50;;;1.38;;
59006;SDS011;44792;52.760;6.726;2023-08-12T12:26:43;1.48;;;1.20;;
59006;SDS011;44792;52.760;6.726;2023-08-12T12:29:09;1.83;;;1.45;;
59006;SDS011;44792;52.760;6.726;2023-08-12T12:31:39;1.38;;;1.27;;
59006;SDS011;44792;52.760;6.726;2023-08-12T12:34:06;1.73;;;1.52;;
59006;SDS011;44792;52.760;6.726;2023-08-12T12:36:35;1.70;;;1.30;;
59006;SDS011;44792;52.760;6.726;2023-08-12T12:39:02;1.80;;;1.35;;
59006;SDS011;44792;52.760;6.726;2023-08-12T12:41:28;4.82;;;1.05;;
59006;SDS011;44792;52.760;6.726;2023-08-12T12:43:54;3.25;;;1.45;;
59006;SDS011;44792;52.760;6.726;2023-08-12T12:46:20;1.38;;;1.10;;
59006;SDS011;44792;52.760;6.726;2023-08-12T12:48:46;1.63;;;1.15;;
59006;SDS011;44792;52.760;6.726;2023-08-12T12:51:12;1.58;;;1.30;;
59006;SDS011;44792;52.760;6.726;2023-08-12T12:53:38;5.72;;;1.48;;
59006;SDS011;44792;52.760;6.726;2023-08-12T12:56:05;1.83;;;1.08;;
59006;SDS011;44792;52.760;6.726;2023-08-12T12:58:31;4.10;;;1.15;;
59006;SDS011;44792;52.760;6.726;2023-08-12T13:00:58;4.35;;;1.42;;
59006;SDS011;44792;52.760;6.726;2023-08-12T13:03:25;4.18;;;1.50;;
59006;SDS011;44792;52.760;6.726;2023-08-12T13:05:51;1.60;;;1.02;;
59006;SDS011;44792;52.760;6.726;2023-08-12T13:08:17;6.07;;;1.70;;
59006;SDS011;44792;52.760;6.726;2023-08-12T13:10:43;3.67;;;1.70;;
59006;SDS011;44792;52.760;6.726;2023-08-12T13:13:08;4.50;;;1.48;;
59006;SDS011;44792;52.760;6.726;2023-08-12T13:15:34;5.57;;;1.52;;
59006;SDS011;44792;52.760;6.726;2023-08-12T13:18:01;5.15;;;1.98;;
59006;SDS011;44792;52.760;6.726;2023-08-12T13:20:28;4.68;;;1.63;;
59006;SDS011;44792;52.760;6.726;2023-08-12T13:22:54;3.20;;;1.40;;
59006;SDS011;44792;52.760;6.726;2023-08-12T13:25:19;8.70;;;1.52;;
59006;SDS011;44792;52.760;6.726;2023-08-12T13:27:45;6.38;;;2.00;;
59006;SDS011;44792;52.760;6.726;2023-08-12T13:30:11;6.35;;;1.60;;
59006;SDS011;44792;52.760;6.726;2023-08-12T13:32:37;4.25;;;1.48;;
59006;SDS011;44792;52.760;6.726;2023-08-12T13:35:03;6.93;;;1.92;;
59006;SDS011;44792;52.760;6.726;2023-08-12T13:37:30;4.57;;;1.50;;
59006;SDS011;44792;52.760;6.726;2023-08-12T13:39:57;7.15;;;1.75;;
59006;SDS011;44792;52.760;6.726;2023-08-12T13:42:23;5.00;;;1.40;;
59006;SDS011;44792;52.760;6.726;2023-08-12T13:44:49;6.10;;;1.42;;
59006;SDS011;44792;52.760;6.726;2023-08-12T13:47:14;9.90;;;1.90;;
59006;SDS011;44792;52.760;6.726;2023-08-12T13:49:40;6.45;;;2.28;;
59006;SDS011;44792;52.760;6.726;2023-08-12T13:52:06;4.57;;;2.08;;
59006;SDS011;44792;52.760;6.726;2023-08-12T13:54:32;6.43;;;1.60;;
59006;SDS011;44792;52.760;6.726;2023-08-12T13:56:59;7.22;;;1.95;;
59006;SDS011;44792;52.760;6.726;2023-08-12T13:59:24;4.72;;;1.40;;
59006;SDS011;44792;52.760;6.726;2023-08-12T14:01:50;3.83;;;1.65;;
59006;SDS011;44792;52.760;6.726;2023-08-12T14:04:16;5.90;;;1.67;;
59006;SDS011;44792;52.760;6.726;2023-08-12T14:06:42;6.70;;;2.00;;
59006;SDS011;44792;52.760;6.726;2023-08-12T14:09:08;7.45;;;1.40;;
59006;SDS011;44792;52.760;6.726;2023-08-12T14:11:36;6.88;;;1.73;;
59006;SDS011;44792;52.760;6.726;2023-08-12T14:14:01;4.40;;;1.95;;
59006;SDS011;44792;52.760;6.726;2023-08-12T14:16:29;5.63;;;1.30;;
59006;SDS011;44792;52.760;6.726;2023-08-12T14:18:54;7.15;;;1.50;;
59006;SDS011;44792;52.760;6.726;2023-08-12T14:21:20;7.63;;;2.10;;
59006;SDS011;44792;52.760;6.726;2023-08-12T14:23:46;9.68;;;1.77;;
59006;SDS011;44792;52.760;6.726;2023-08-12T14:26:12;7.43;;;1.75;;
59006;SDS011;44792;52.760;6.726;2023-08-12T14:28:37;4.57;;;1.52;;
59006;SDS011;44792;52.760;6.726;2023-08-12T14:31:03;10.88;;;2.08;;
59006;SDS011;44792;52.760;6.726;2023-08-12T14:33:29;9.13;;;2.05;;
59006;SDS011;44792;52.760;6.726;2023-08-12T14:35:58;11.38;;;2.25;;
59006;SDS011;44792;52.760;6.726;2023-08-12T14:38:24;8.05;;;2.05;;
59006;SDS011;44792;52.760;6.726;2023-08-12T14:40:50;7.68;;;2.25;;
59006;SDS011;44792;52.760;6.726;2023-08-12T14:43:15;7.43;;;2.30;;
59006;SDS011;44792;52.760;6.726;2023-08-12T14:45:43;7.00;;;1.73;;
59006;SDS011;44792;52.760;6.726;2023-08-12T14:48:11;7.63;;;1.95;;
59006;SDS011;44792;52.760;6.726;2023-08-12T14:50:37;8.85;;;2.08;;
59006;SDS011;44792;52.760;6.726;2023-08-12T14:53:03;6.90;;;1.85;;